ZMUB/ULN METAR and TAF weather

Enter ICAO airport designator
Station Type Date Time Source
ZMUB METAR 2019/04/20 18:00 UTC NOAA

ZMUB 201800Z 16002MPS CAVOK M05/M14 Q1010 NOSIG RMK QFE650.6 47


Station Type Date Time Source
ZMUB Decoded METAR 2019/04/20 18:00 UTC NOAA

Ulan-Bator, Mongolia (ZMUB) 47-51N 106-46E
Apr 20, 2019 - 02:00 PM EDT / 2019.04.20 1800 UTC
Wind: from the SSE (160 degrees) at 4 MPH (4 KT):0
Visibility: greater than 7 mile(s):0
Temperature: 23 F (-5 C)
Dew Point: 6 F (-14 C)
Relative Humidity: 49%
Pressure (altimeter): 29.83 in. Hg (1010 hPa)
ob: ZMUB 201800Z 16002MPS CAVOK M05/M14 Q1010 NOSIG RMK QFE650.6 47
cycle: 18

Station Type Date Time Source
ZMUB TAF 2019/04/20 18:33 UTC NOAA

TAF TAF ZMUB 201630Z 2018/2124 VRB02MPS 9999 SCT033 TNM07/2023Z TX17/2107Z
BECMG 2104/2106 24005MPS
BECMG 2110/2112 VRB02MPS

Example: see airport list